Time;durP1;ratioP1;P1;durP2;ratioP2;P2;SDS_P1;SDS_P2;PMS_P1;PMS_P2;Temp;Humidity;BMP_temperature;BMP_pressure;BME280_temperature;BME280_humidity;BME280_pressure;Samples;Min_cycle;Max_cycle;Signal;HPM_P1;HPM_P2
2022/07/31 00:00:09;;;;;;;13.93;6.00;;;;;;;15.35;100.00;96138.56;1026067;28;20109;-71
2022/07/31 00:00:39;;;;;;;8.13;5.93;;;;;;;15.33;100.00;96135.41;1030184;28;20038;-71
2022/07/31 00:01:11;;;;;;;8.23;5.63;;;;;;;15.30;100.00;96138.63;1029233;28;20061;-70
2022/07/31 00:01:41;;;;;;;7.40;5.80;;;;;;;15.27;100.00;96137.31;1029930;28;20018;-72
2022/07/31 00:02:11;;;;;;;9.07;5.78;;;;;;;15.28;100.00;96132.81;1030132;28;20076;-69
2022/07/31 00:02:43;;;;;;;7.78;5.70;;;;;;;15.31;100.00;96138.31;1030078;28;20347;-70
2022/07/31 00:03:13;;;;;;;7.45;5.60;;;;;;;15.35;100.00;96140.41;1033856;28;20029;-70
2022/07/31 00:03:44;;;;;;;9.55;6.10;;;;;;;15.33;100.00;96136.19;1034251;28;20206;-70
2022/07/31 00:04:14;;;;;;;7.28;5.55;;;;;;;15.16;100.00;96112.09;1026090;28;20461;-70
2022/07/31 00:04:45;;;;;;;13.50;6.07;;;;;;;15.35;100.00;96129.84;1026017;28;20098;-71
2022/07/31 00:05:15;;;;;;;8.90;5.50;;;;;;;15.36;100.00;96134.03;1025857;28;20437;-71
2022/07/31 00:05:46;;;;;;;6.50;5.25;;;;;;;15.31;100.00;96122.47;1022072;28;20452;-70
2022/07/31 00:06:17;;;;;;;7.20;5.60;;;;;;;15.38;100.00;96132.69;1023929;28;20298;-70
2022/07/31 00:06:48;;;;;;;7.00;5.60;;;;;;;15.38;100.00;96131.91;1014239;29;20107;-70
2022/07/31 00:07:19;;;;;;;5.70;5.20;;;;;;;15.36;100.00;96128.75;1018119;29;20485;-70
2022/07/31 00:07:49;;;;;;;6.18;5.68;;;;;;;15.35;100.00;96130.63;1018730;28;20039;-71
2022/07/31 00:08:20;;;;;;;6.10;5.50;;;;;;;15.30;100.00;96131.47;1022095;28;20405;-71
2022/07/31 00:08:50;;;;;;;8.38;5.70;;;;;;;15.31;100.00;96126.97;1022217;28;20054;-70
2022/07/31 00:09:21;;;;;;;6.60;5.60;;;;;;;15.29;100.00;96129.91;1026038;28;20078;-71
2022/07/31 00:09:51;;;;;;;10.10;5.95;;;;;;;15.29;100.00;96135.19;1029785;28;20316;-71
2022/07/31 00:10:22;;;;;;;12.77;6.50;;;;;;;15.27;100.00;96142.63;1030068;28;20030;-70
2022/07/31 00:10:52;;;;;;;18.50;6.32;;;;;;;15.27;100.00;96133.91;1025955;28;20258;-71
2022/07/31 00:11:23;;;;;;;7.88;5.95;;;;;;;15.25;100.00;96136.81;1025180;28;20079;-72
2022/07/31 00:11:54;;;;;;;10.40;6.43;;;;;;;15.26;100.00;96134.97;1026059;28;20027;-70
2022/07/31 00:12:24;;;;;;;17.58;5.95;;;;;;;15.25;100.00;96128.09;1030186;28;20046;-70
2022/07/31 00:12:55;;;;;;;11.30;5.70;;;;;;;15.23;100.00;96131.03;1033864;28;20030;-70
2022/07/31 00:13:25;;;;;;;9.60;5.95;;;;;;;15.22;100.00;96133.94;1030057;28;20128;-71
2022/07/31 00:13:56;;;;;;;7.13;5.63;;;;;;;15.22;100.00;96136.59;1029937;28;20018;-71
2022/07/31 00:14:26;;;;;;;8.75;6.30;;;;;;;15.21;100.00;96133.16;1030106;28;20034;-72
2022/07/31 00:14:57;;;;;;;10.27;6.03;;;;;;;15.20;100.00;96136.88;1029936;28;20129;-70
2022/07/31 00:15:27;;;;;;;6.35;5.75;;;;;;;15.17;100.00;96137.44;1029927;28;20585;-73
2022/07/31 00:15:58;;;;;;;12.70;6.60;;;;;;;15.18;100.00;96136.38;1034049;28;20037;-70
2022/07/31 00:16:28;;;;;;;11.32;6.65;;;;;;;15.17;100.00;96137.44;1034015;28;20096;-70
2022/07/31 00:16:59;;;;;;;7.25;6.13;;;;;;;15.14;100.00;96138.00;1034134;28;20152;-69
2022/07/31 00:17:29;;;;;;;10.88;6.10;;;;;;;15.10;100.00;96131.72;1034046;28;20030;-72
2022/07/31 00:17:59;;;;;;;7.05;6.35;;;;;;;15.10;100.00;96134.34;1033942;28;20204;-70
2022/07/31 00:18:30;;;;;;;8.32;5.68;;;;;;;15.08;100.00;96139.13;1034053;28;20030;-71
2022/07/31 00:19:01;;;;;;;9.13;5.70;;;;;;;15.07;100.00;96132.28;1030053;28;20089;-70
2022/07/31 00:19:31;;;;;;;7.75;5.85;;;;;;;15.08;100.00;96133.84;1025927;28;20071;-72
2022/07/31 00:20:02;;;;;;;8.80;6.18;;;;;;;15.06;100.00;96136.78;1021941;29;20027;-69
2022/07/31 00:20:33;;;;;;;7.40;6.30;;;;;;;14.99;100.00;96125.75;1022447;28;20092;-70
2022/07/31 00:21:03;;;;;;;7.43;5.68;;;;;;;15.03;100.00;96131.25;1029765;28;20022;-71
2022/07/31 00:21:33;;;;;;;7.47;5.82;;;;;;;15.01;100.00;96134.16;1034006;28;20624;-70
2022/07/31 00:22:04;;;;;;;6.72;5.43;;;;;;;15.01;100.00;96130.75;1029678;28;20038;-71
2022/07/31 00:22:34;;;;;;;6.90;6.20;;;;;;;15.01;100.00;96133.38;1030026;28;20054;-71
2022/07/31 00:23:05;;;;;;;8.18;6.15;;;;;;;15.02;100.00;96134.94;1026093;28;20023;-70
2022/07/31 00:23:35;;;;;;;8.93;6.22;;;;;;;14.93;100.00;96120.81;1029896;28;20019;-72
2022/07/31 00:24:06;;;;;;;6.80;6.10;;;;;;;14.96;100.00;96131.59;1029826;28;20037;-70
2022/07/31 00:24:36;;;;;;;7.97;6.47;;;;;;;14.94;100.00;96138.22;1030012;28;20409;-71
2022/07/31 00:25:07;;;;;;;8.00;6.55;;;;;;;14.93;100.00;96137.44;1029950;28;20153;-70
2022/07/31 00:25:38;;;;;;;8.23;6.65;;;;;;;14.92;100.00;96135.06;1029964;28;20500;-71
2022/07/31 00:26:08;;;;;;;9.93;6.35;;;;;;;14.91;100.00;96130.84;1032277;28;20100;-73
2022/07/31 00:26:39;;;;;;;9.77;6.65;;;;;;;14.90;100.00;96132.72;1034131;28;20488;-71
2022/07/31 00:27:10;;;;;;;6.68;5.95;;;;;;;14.83;100.00;96124.34;1033800;28;20091;-70
2022/07/31 00:27:40;;;;;;;12.73;6.35;;;;;;;14.82;100.00;96120.91;1034163;28;20068;-71
2022/07/31 00:28:11;;;;;;;12.20;7.93;;;;;;;14.89;100.00;96132.97;1025958;28;20030;-72
2022/07/31 00:28:41;;;;;;;8.52;6.15;;;;;;;14.87;100.00;96132.50;1025752;28;20030;-72
2022/07/31 00:29:12;;;;;;;8.70;6.88;;;;;;;14.85;100.00;96130.91;1025921;28;20320;-71
2022/07/31 00:29:42;;;;;;;7.93;6.22;;;;;;;14.87;100.00;96129.84;1022261;28;20042;-70
2022/07/31 00:30:13;;;;;;;10.38;6.20;;;;;;;14.85;100.00;96136.19;1025739;28;20035;-72
2022/07/31 00:30:43;;;;;;;10.27;6.60;;;;;;;14.84;100.00;96131.97;1025316;28;20045;-71
2022/07/31 00:31:14;;;;;;;10.88;6.70;;;;;;;14.83;100.00;96133.03;1029419;28;20053;-70
2022/07/31 00:31:44;;;;;;;10.20;6.10;;;;;;;14.83;100.00;96133.03;1030071;28;20029;-71
2022/07/31 00:32:15;;;;;;;7.80;6.30;;;;;;;14.80;100.00;96138.09;1029809;28;20045;-71
2022/07/31 00:32:45;;;;;;;9.23;6.40;;;;;;;14.79;100.00;96132.03;1024612;28;20477;-74
2022/07/31 00:33:16;;;;;;;8.43;6.72;;;;;;;14.80;100.00;96138.88;1019363;28;20031;-71
2022/07/31 00:33:46;;;;;;;8.73;6.03;;;;;;;14.79;100.00;96134.66;1018620;28;20031;-69
2022/07/31 00:34:17;;;;;;;8.85;6.53;;;;;;;14.80;100.00;96138.09;1022836;28;20058;-71
2022/07/31 00:34:47;;;;;;;8.20;6.30;;;;;;;14.79;100.00;96126.75;1030097;28;20141;-72
2022/07/31 00:35:18;;;;;;;7.57;6.40;;;;;;;14.81;100.00;96129.88;1034002;28;20057;-72
2022/07/31 00:35:48;;;;;;;7.72;6.03;;;;;;;14.81;100.00;96137.81;1034121;28;20034;-71
2022/07/31 00:36:19;;;;;;;7.10;6.40;;;;;;;14.82;100.00;96142.03;1034020;28;20038;-70
2022/07/31 00:36:49;;;;;;;7.00;6.28;;;;;;;14.81;100.00;96132.53;1034168;28;20666;-72
2022/07/31 00:37:20;;;;;;;7.95;6.35;;;;;;;14.82;100.00;96147.31;1033955;28;20073;-70
2022/07/31 00:37:50;;;;;;;7.25;6.53;;;;;;;14.79;100.00;96134.66;1030224;28;20034;-71
2022/07/31 00:38:21;;;;;;;8.57;6.72;;;;;;;14.79;100.00;96142.59;1022275;28;20112;-71
2022/07/31 00:38:51;;;;;;;13.80;6.57;;;;;;;14.81;100.00;96140.44;1018072;29;20036;-71
2022/07/31 00:39:23;;;;;;;11.32;7.20;;;;;;;14.76;100.00;96129.94;1018052;29;20063;-69
2022/07/31 00:39:53;;;;;;;10.10;6.65;;;;;;;14.81;100.00;96143.09;1018654;28;20609;-72
2022/07/31 00:40:23;;;;;;;10.23;6.15;;;;;;;14.81;100.00;96140.44;1026196;28;20031;-71
2022/07/31 00:40:54;;;;;;;7.50;5.97;;;;;;;14.81;100.00;96140.44;1029749;28;20434;-74
2022/07/31 00:41:24;;;;;;;9.02;5.95;;;;;;;14.79;100.00;96131.25;1029535;28;20022;-69
2022/07/31 00:41:55;;;;;;;7.88;6.55;;;;;;;14.76;100.00;96124.66;1034042;28;20026;-71
2022/07/31 00:42:25;;;;;;;7.13;6.05;;;;;;;14.81;100.00;96132.53;1021826;28;20110;-72
2022/07/31 00:42:56;;;;;;;9.73;6.43;;;;;;;14.81;100.00;96132.53;1021852;29;20031;-75
2022/07/31 00:43:26;;;;;;;10.15;6.47;;;;;;;14.81;100.00;96137.03;1021234;29;20626;-71
2022/07/31 00:43:57;;;;;;;7.47;5.95;;;;;;;14.81;100.00;96132.53;1017728;29;20079;-73
2022/07/31 00:44:27;;;;;;;9.13;6.50;;;;;;;14.80;100.00;96138.88;1018159;29;20059;-70
2022/07/31 00:44:58;;;;;;;7.78;6.60;;;;;;;14.78;100.00;96140.22;1018087;29;20032;-69
2022/07/31 00:45:28;;;;;;;12.65;6.43;;;;;;;14.78;100.00;96135.72;1018194;28;20040;-71
2022/07/31 00:45:59;;;;;;;11.05;5.97;;;;;;;14.78;100.00;96143.66;1025030;28;20027;-71
2022/07/31 00:46:30;;;;;;;9.18;6.05;;;;;;;14.73;100.00;96124.44;1030063;28;20030;-70
2022/07/31 00:47:00;;;;;;;10.63;6.95;;;;;;;14.77;100.00;96141.28;1026072;28;20105;-72
2022/07/31 00:47:31;;;;;;;7.32;6.60;;;;;;;14.76;100.00;96140.50;1026066;28;20037;-70
2022/07/31 00:48:02;;;;;;;7.28;6.40;;;;;;;14.75;100.00;96138.91;1026166;28;20018;-71
2022/07/31 00:48:33;;;;;;;7.60;6.40;;;;;;;14.68;100.00;96129.75;1026330;28;20027;-70
2022/07/31 00:49:06;;;;;;;6.47;5.88;;;;;;;14.69;100.00;96126.84;1029901;28;20381;-72
2022/07/31 00:49:36;;;;;;;7.55;6.20;;;;;;;14.77;100.00;96139.44;1029929;28;20018;-72
2022/07/31 00:50:07;;;;;;;6.93;6.13;;;;;;;14.76;100.00;96137.09;1026173;28;20026;-71
2022/07/31 00:50:37;;;;;;;7.05;6.30;;;;;;;14.77;100.00;96144.72;1022506;28;20168;-70
2022/07/31 00:51:08;;;;;;;7.25;6.43;;;;;;;14.77;100.00;96141.28;1020919;28;20016;-71
2022/07/31 00:51:38;;;;;;;7.40;6.57;;;;;;;14.79;100.00;96137.31;1018123;29;20682;-72
2022/07/31 00:52:09;;;;;;;6.80;5.88;;;;;;;14.80;100.00;96130.16;1022105;28;20480;-71
2022/07/31 00:52:39;;;;;;;8.93;6.35;;;;;;;14.83;100.00;96142.81;1019977;28;20561;-71
2022/07/31 00:53:10;;;;;;;8.35;6.43;;;;;;;14.80;100.00;96143.38;1025992;28;20065;-71
2022/07/31 00:53:40;;;;;;;8.07;6.28;;;;;;;14.81;100.00;96150.22;1025999;28;20019;-72
2022/07/31 00:54:11;;;;;;;8.35;6.45;;;;;;;14.80;100.00;96141.53;1025906;28;20420;-71
2022/07/31 00:54:41;;;;;;;7.25;6.45;;;;;;;14.78;100.00;96138.38;1030008;28;20030;-71
2022/07/31 00:55:12;;;;;;;5.97;5.43;;;;;;;14.79;100.00;96139.97;1030142;28;20018;-71
2022/07/31 00:55:42;;;;;;;7.03;5.97;;;;;;;14.80;100.00;96133.59;1029905;28;20524;-70
2022/07/31 00:56:13;;;;;;;6.97;6.28;;;;;;;14.74;100.00;96131.28;1029893;28;20022;-71
2022/07/31 00:56:43;;;;;;;18.40;6.70;;;;;;;14.79;100.00;96142.59;1030427;28;20523;-71
2022/07/31 00:57:14;;;;;;;11.15;6.38;;;;;;;14.79;100.00;96139.19;1030032;28;20490;-67
2022/07/31 00:57:44;;;;;;;9.73;6.50;;;;;;;14.79;100.00;96141.81;1025790;28;20131;-71
2022/07/31 00:58:15;;;;;;;6.55;5.95;;;;;;;14.79;100.00;96142.59;1026166;28;20041;-72
2022/07/31 00:58:45;;;;;;;7.07;5.72;;;;;;;14.78;100.00;96138.38;1030151;28;20073;-69
2022/07/31 00:59:16;;;;;;;6.78;6.13;;;;;;;14.78;100.00;96141.00;1029653;28;20041;-73
2022/07/31 00:59:46;;;;;;;7.63;5.97;;;;;;;14.78;100.00;96146.28;1029988;28;20030;-71
2022/07/31 01:00:16;;;;;;;7.20;6.00;;;;;;;14.78;100.00;96140.22;1029996;28;20026;-71
2022/07/31 01:00:47;;;;;;;10.45;6.20;;;;;;;14.78;100.00;96135.72;1030156;28;20065;-71
2022/07/31 01:01:19;;;;;;;10.20;6.60;;;;;;;14.77;100.00;96139.44;1029149;28;20113;-70
2022/07/31 01:01:49;;;;;;;7.93;5.93;;;;;;;14.76;100.00;96137.88;1029844;28;20140;-71
2022/07/31 01:02:19;;;;;;;10.27;6.30;;;;;;;14.75;100.00;96140.78;1025987;28;20505;-71
2022/07/31 01:02:50;;;;;;;7.80;5.60;;;;;;;14.75;100.00;96141.56;1029883;28;20054;-72
2022/07/31 01:03:20;;;;;;;6.72;6.13;;;;;;;14.75;100.00;96141.56;1029794;28;20018;-71
2022/07/31 01:03:52;;;;;;;7.57;5.75;;;;;;;14.74;100.00;96140.00;1029954;28;20104;-71
2022/07/31 01:04:22;;;;;;;6.45;5.85;;;;;;;14.75;100.00;96140.78;1033704;28;20017;-71
2022/07/31 01:04:53;;;;;;;5.90;5.30;;;;;;;14.66;100.00;96132.69;1030242;28;20022;-71
2022/07/31 01:05:23;;;;;;;7.15;5.78;;;;;;;14.72;100.00;96141.31;1027549;28;20475;-71
2022/07/31 01:05:54;;;;;;;6.93;6.25;;;;;;;14.72;100.00;96136.84;1026711;28;20038;-71
2022/07/31 01:06:24;;;;;;;9.77;6.30;;;;;;;14.71;100.00;96145.03;1022981;28;20838;-71
2022/07/31 01:06:55;;;;;;;7.03;6.32;;;;;;;14.67;100.00;96139.53;1022978;28;20687;-73
2022/07/31 01:07:25;;;;;;;8.55;6.05;;;;;;;14.65;100.00;96141.66;1024415;29;20147;-72
2022/07/31 01:07:56;;;;;;;6.70;5.85;;;;;;;14.60;100.00;96134.56;1023634;28;20054;-71
2022/07/31 01:08:26;;;;;;;6.38;5.68;;;;;;;14.56;100.00;96130.13;1027978;28;20695;-72
2022/07/31 01:08:57;;;;;;;6.85;5.85;;;;;;;14.60;100.00;96139.06;1023921;28;20035;-71
2022/07/31 01:09:28;;;;;;;8.38;6.20;;;;;;;14.58;100.00;96141.19;1028135;28;20031;-74
2022/07/31 01:09:59;;;;;;;6.60;6.00;;;;;;;14.55;100.00;96141.75;1027808;28;20106;-71
2022/07/31 01:11:08;;;;;;;9.07;5.97;;;;;;;14.54;100.00;96140.19;1028118;28;20503;-72
2022/07/31 01:11:47;;;;;;;6.70;6.10;;;;;;;14.52;100.00;96135.19;1033126;28;20123;-70
2022/07/31 01:12:47;;;;;;;9.43;6.55;;;;;;;14.52;100.00;96137.00;1034792;28;20022;-72
2022/07/31 01:13:30;;;;;;;18.23;6.97;;;;;;;14.51;100.00;96135.44;1030838;28;20022;-73
2022/07/31 01:14:02;;;;;;;35.88;8.18;;;;;;;14.50;100.00;96133.84;1027174;28;20045;-74
2022/07/31 01:14:37;;;;;;;23.40;7.13;;;;;;;14.50;100.00;96134.66;1018649;29;20521;-70
2022/07/31 01:15:08;;;;;;;22.60;6.95;;;;;;;14.48;100.00;96136.75;1018866;29;20607;-72
2022/07/31 01:15:38;;;;;;;18.23;7.88;;;;;;;14.43;100.00;96125.47;1020070;29;20031;-71
2022/07/31 01:16:09;;;;;;;14.23;6.05;;;;;;;14.48;100.00;96131.47;1023660;28;20489;-71
2022/07/31 01:16:42;;;;;;;14.90;6.28;;;;;;;14.48;100.00;96139.41;1022834;28;20038;-71
2022/07/31 01:17:12;;;;;;;10.13;6.30;;;;;;;14.45;100.00;96137.31;1027081;28;20660;-70
2022/07/31 01:17:44;;;;;;;6.90;6.22;;;;;;;14.43;100.00;96122.81;1027203;28;20022;-71
2022/07/31 01:18:14;;;;;;;10.82;6.45;;;;;;;14.45;100.00;96125.97;1026736;28;20019;-71
2022/07/31 01:18:45;;;;;;;7.10;6.38;;;;;;;14.51;100.00;96135.44;1022649;28;20023;-70
2022/07/31 01:19:48;;;;;;;7.03;6.32;;;;;;;14.51;100.00;96135.44;1022778;29;20019;-71
2022/07/31 01:20:19;;;;;;;7.68;6.88;;;;;;;14.50;100.00;96137.31;1030322;28;20010;-71
2022/07/31 01:20:49;;;;;;;8.95;7.00;;;;;;;14.49;100.00;96135.72;1030497;28;20019;-71
2022/07/31 01:21:26;;;;;;;7.07;6.38;;;;;;;14.50;100.00;96136.50;1021935;28;20022;-71
2022/07/31 01:22:34;;;;;;;8.00;6.63;;;;;;;14.52;100.00;96131.72;1023567;28;20110;-71
2022/07/31 01:23:21;;;;;;;7.47;6.75;;;;;;;14.57;100.00;96137.00;1030371;28;20033;-70
2022/07/31 01:23:57;;;;;;;7.72;6.85;;;;;;;14.56;100.00;96138.06;1030936;28;20137;-72
2022/07/31 01:24:47;;;;;;;11.68;6.70;;;;;;;14.51;100.00;96124.88;1030640;28;20172;-71
2022/07/31 01:25:37;;;;;;;7.18;6.47;;;;;;;14.56;100.00;96144.13;1030203;28;20030;-72
2022/07/31 01:26:37;;;;;;;7.32;6.35;;;;;;;14.57;100.00;96134.34;1031905;28;20113;-71
2022/07/31 01:27:24;;;;;;;7.75;6.95;;;;;;;14.56;100.00;96140.69;1030370;28;20064;-71
2022/07/31 01:28:23;;;;;;;7.47;6.43;;;;;;;14.51;100.00;96138.09;1025236;28;20099;-71
2022/07/31 01:29:02;;;;;;;8.27;7.15;;;;;;;14.53;100.00;96143.91;1026561;28;20181;-70
2022/07/31 01:29:44;;;;;;;7.32;6.50;;;;;;;14.45;100.00;96133.88;1027747;28;20022;-72
2022/07/31 01:30:14;;;;;;;9.48;6.70;;;;;;;14.48;100.00;96138.63;1030937;28;20050;-71
2022/07/31 01:30:47;;;;;;;8.70;7.10;;;;;;;14.46;100.00;96140.75;1034188;28;20030;-71
2022/07/31 01:31:20;;;;;;;7.75;6.88;;;;;;;14.46;100.00;96140.75;1030052;28;20587;-71
2022/07/31 01:32:02;;;;;;;7.18;6.47;;;;;;;14.46;100.00;96138.13;1030945;28;20113;-71
2022/07/31 01:32:42;;;;;;;8.13;7.07;;;;;;;14.46;100.00;96138.13;1030695;28;20396;-70
2022/07/31 01:33:14;;;;;;;9.20;7.45;;;;;;;14.45;100.00;96137.31;1028324;28;20034;-70
2022/07/31 01:33:48;;;;;;;7.68;6.97;;;;;;;14.45;100.00;96145.22;1026400;28;20039;-70
2022/07/31 01:34:33;;;;;;;7.78;7.05;;;;;;;14.46;100.00;96140.75;1024835;28;20082;-71
2022/07/31 01:35:06;;;;;;;9.95;7.28;;;;;;;14.45;100.00;96145.22;1022687;29;20033;-71
2022/07/31 01:35:46;;;;;;;12.75;7.45;;;;;;;14.43;100.00;96143.94;1025539;28;20031;-70
2022/07/31 01:36:19;;;;;;;8.65;6.85;;;;;;;14.43;100.00;96143.94;1022965;29;20353;-71
2022/07/31 01:36:58;;;;;;;9.23;7.38;;;;;;;14.42;100.00;96137.06;1016808;29;20128;-71
2022/07/31 01:37:49;;;;;;;12.13;6.82;;;;;;;14.39;100.00;96139.22;1017605;29;20079;-70
2022/07/31 01:38:22;;;;;;;16.10;6.78;;;;;;;14.41;100.00;96141.56;1022762;29;20425;-70
2022/07/31 01:38:53;;;;;;;15.50;7.07;;;;;;;14.44;100.00;96142.88;1026728;28;20023;-72
2022/07/31 01:39:24;;;;;;;8.55;7.00;;;;;;;14.37;100.00;96130.78;1022475;29;20632;-70
2022/07/31 01:40:03;;;;;;;8.48;6.95;;;;;;;14.46;100.00;96140.75;1022765;29;20046;-71
2022/07/31 01:40:35;;;;;;;7.60;6.88;;;;;;;14.46;100.00;96143.41;1020070;28;20035;-70
2022/07/31 01:41:10;;;;;;;15.05;6.63;;;;;;;14.44;100.00;96141.03;1026034;28;20381;-71
2022/07/31 01:41:42;;;;;;;7.28;6.55;;;;;;;14.48;100.00;96146.53;1014734;29;20038;-70
2022/07/31 01:42:13;;;;;;;9.93;6.55;;;;;;;14.49;100.00;96141.00;1014809;29;20024;-73
2022/07/31 01:42:45;;;;;;;7.28;6.57;;;;;;;14.51;100.00;96140.72;1022650;29;20091;-70
2022/07/31 01:43:21;;;;;;;7.20;5.97;;;;;;;14.49;100.00;96129.66;1021072;29;20019;-70
2022/07/31 01:43:52;;;;;;;8.55;6.07;;;;;;;14.59;100.00;96146.22;1026722;28;20515;-70
2022/07/31 01:44:23;;;;;;;6.45;5.85;;;;;;;14.60;100.00;96147.00;1023252;28;20042;-72
2022/07/31 01:44:57;;;;;;;9.20;6.68;;;;;;;14.59;100.00;96137.50;1019950;29;20032;-70
2022/07/31 01:45:27;;;;;;;6.57;5.90;;;;;;;14.64;100.00;96141.94;1022638;29;20034;-71
2022/07/31 01:45:58;;;;;;;6.70;6.10;;;;;;;14.61;100.00;96130.06;1021391;28;20038;-70
2022/07/31 01:46:28;;;;;;;8.45;6.70;;;;;;;14.68;100.00;96140.31;1014896;29;20039;-70
2022/07/31 01:46:59;;;;;;;7.20;6.50;;;;;;;14.68;100.00;96140.31;1022702;29;20122;-71
2022/07/31 01:47:29;;;;;;;7.10;6.40;;;;;;;14.70;100.00;96138.97;1026493;28;20496;-71
2022/07/31 01:48:00;;;;;;;6.30;5.70;;;;;;;14.67;100.00;96141.41;1014736;29;20815;-70
2022/07/31 01:48:31;;;;;;;9.55;6.68;;;;;;;14.65;100.00;96131.09;1022833;29;20771;-69
2022/07/31 01:49:02;;;;;;;7.78;6.35;;;;;;;14.72;100.00;96139.50;1026530;28;20026;-71
2022/07/31 01:49:32;;;;;;;11.25;6.07;;;;;;;14.72;100.00;96147.44;1018589;29;20047;-72
2022/07/31 01:50:04;;;;;;;6.72;6.13;;;;;;;14.67;100.00;96130.81;1022609;29;20023;-71
2022/07/31 01:50:34;;;;;;;11.60;6.45;;;;;;;14.71;100.00;96137.91;1026630;28;20098;-71
2022/07/31 01:51:04;;;;;;;7.70;6.90;;;;;;;14.74;100.00;96142.63;1023193;28;20647;-73
2022/07/31 01:51:35;;;;;;;6.90;6.00;;;;;;;14.75;100.00;96143.41;1022431;28;20086;-72
2022/07/31 01:52:06;;;;;;;9.65;6.65;;;;;;;14.76;100.00;96142.38;1010973;29;20042;-71
2022/07/31 01:52:36;;;;;;;7.55;6.05;;;;;;;14.75;100.00;96138.13;1008545;29;20037;-71
2022/07/31 01:53:07;;;;;;;10.45;7.20;;;;;;;14.76;100.00;96140.50;1018749;29;20174;-71
2022/07/31 01:53:37;;;;;;;9.18;6.40;;;;;;;14.76;100.00;96145.00;1022738;29;20035;-69
2022/07/31 01:54:08;;;;;;;6.95;6.25;;;;;;;14.77;100.00;96133.38;1018282;29;20465;-73
2022/07/31 01:54:38;;;;;;;6.75;6.10;;;;;;;14.77;100.00;96133.38;1012412;29;20056;-74
2022/07/31 01:55:09;;;;;;;7.95;6.63;;;;;;;14.77;100.00;96139.44;1020450;29;20035;-69
2022/07/31 01:55:41;;;;;;;7.45;6.35;;;;;;;14.77;100.00;96134.16;1022569;29;20019;-71
2022/07/31 01:56:11;;;;;;;9.48;6.88;;;;;;;14.77;100.00;96141.28;1011616;29;20536;-71
2022/07/31 01:56:42;;;;;;;9.90;7.05;;;;;;;14.71;100.00;96127.34;1014960;29;20036;-71
2022/07/31 01:57:12;;;;;;;9.93;6.45;;;;;;;14.75;100.00;96133.63;1018847;29;20059;-71
2022/07/31 01:57:43;;;;;;;8.68;6.18;;;;;;;14.76;100.00;96140.50;1022658;28;20151;-71
2022/07/31 01:58:13;;;;;;;9.07;6.13;;;;;;;14.73;100.00;96132.34;1018660;29;20123;-70
2022/07/31 01:58:44;;;;;;;6.75;6.05;;;;;;;14.77;100.00;96141.28;1018660;28;20067;-70
2022/07/31 01:59:15;;;;;;;9.35;7.00;;;;;;;14.78;100.00;96135.72;1022675;28;20038;-72
2022/07/31 01:59:45;;;;;;;7.53;6.63;;;;;;;14.78;100.00;96141.00;1022413;29;20031;-71
2022/07/31 02:00:17;;;;;;;6.72;5.97;;;;;;;14.77;100.00;96139.44;1026395;28;20034;-70
2022/07/31 02:00:48;;;;;;;8.85;6.32;;;;;;;14.75;100.00;96138.91;1030802;28;20070;-70
2022/07/31 02:01:19;;;;;;;9.45;6.47;;;;;;;14.76;100.00;96145.00;1025787;28;20040;-71
2022/07/31 02:01:49;;;;;;;7.13;6.18;;;;;;;14.74;100.00;96134.72;1018771;29;20034;-71
2022/07/31 02:02:20;;;;;;;7.53;6.22;;;;;;;14.68;100.00;96133.19;1014535;29;20030;-70
2022/07/31 02:02:51;;;;;;;7.82;6.55;;;;;;;14.75;100.00;96140.78;1020620;29;20034;-72
2022/07/31 02:03:22;;;;;;;7.45;6.65;;;;;;;14.73;100.00;96143.72;1022493;29;20062;-69
2022/07/31 02:03:53;;;;;;;7.05;6.35;;;;;;;14.71;100.00;96137.91;1018595;29;20071;-71
2022/07/31 02:04:24;;;;;;;7.60;6.68;;;;;;;14.69;100.00;96129.50;1014641;29;20082;-70
2022/07/31 02:04:54;;;;;;;7.72;6.50;;;;;;;14.73;100.00;96137.66;1022470;29;20127;-70
2022/07/31 02:05:25;;;;;;;7.85;6.15;;;;;;;14.78;100.00;96145.50;1018640;29;20043;-71
2022/07/31 02:05:56;;;;;;;8.00;6.65;;;;;;;14.77;100.00;96136.78;1022732;28;20023;-70
2022/07/31 02:06:26;;;;;;;12.82;6.80;;;;;;;14.80;100.00;96143.38;1026499;28;20070;-71
2022/07/31 02:06:57;;;;;;;10.65;6.60;;;;;;;14.80;100.00;96141.53;1026312;28;20050;-73
2022/07/31 02:07:28;;;;;;;13.60;6.53;;;;;;;14.75;100.00;96135.50;1022862;28;20126;-69
2022/07/31 02:07:58;;;;;;;19.80;7.20;;;;;;;14.80;100.00;96140.75;1026248;28;20105;-71
2022/07/31 02:08:29;;;;;;;23.50;6.88;;;;;;;14.81;100.00;96137.81;1022484;29;20046;-72
2022/07/31 02:08:59;;;;;;;7.60;6.53;;;;;;;14.84;100.00;96142.53;1022937;28;20023;-70
2022/07/31 02:09:31;;;;;;;8.65;6.57;;;;;;;14.87;100.00;96140.41;1026465;28;20023;-70
2022/07/31 02:10:02;;;;;;;9.73;6.32;;;;;;;14.88;100.00;96139.34;1026356;28;20034;-73
2022/07/31 02:10:32;;;;;;;8.90;6.13;;;;;;;14.89;100.00;96135.63;1018801;29;20451;-71
2022/07/31 02:11:03;;;;;;;7.47;6.45;;;;;;;14.82;100.00;96128.84;1022603;28;20059;-74
2022/07/31 02:11:33;;;;;;;6.20;5.60;;;;;;;14.91;100.00;96139.56;1026731;28;20102;-70
2022/07/31 02:12:04;;;;;;;7.97;6.18;;;;;;;14.93;100.00;96139.31;1026800;28;20057;-70
2022/07/31 02:12:35;;;;;;;8.18;5.95;;;;;;;14.96;100.00;96141.38;1030471;28;20018;-70
2022/07/31 02:13:06;;;;;;;8.52;6.15;;;;;;;14.95;100.00;96137.94;1032499;28;20022;-71
2022/07/31 02:13:36;;;;;;;6.78;5.60;;;;;;;14.97;100.00;96143.72;1026661;28;20037;-72
2022/07/31 02:14:08;;;;;;;6.70;6.00;;;;;;;15.01;100.00;96141.31;1026481;28;20035;-70
2022/07/31 02:14:41;;;;;;;10.27;6.85;;;;;;;15.01;100.00;96133.38;1019279;28;20449;-71
2022/07/31 02:15:13;;;;;;;7.68;6.25;;;;;;;14.97;100.00;96129.75;1022567;29;20499;-71
2022/07/31 02:15:43;;;;;;;6.75;6.03;;;;;;;15.03;100.00;96132.03;1022634;29;20069;-72
2022/07/31 02:16:14;;;;;;;9.45;5.68;;;;;;;15.06;100.00;96141.28;1015504;28;20474;-73
2022/07/31 02:16:45;;;;;;;6.35;5.43;;;;;;;15.07;100.00;96138.34;1015120;29;20063;-70
2022/07/31 02:17:15;;;;;;;6.13;4.93;;;;;;;15.05;100.00;96137.81;1014842;29;20104;-73
2022/07/31 02:17:46;;;;;;;6.18;5.45;;;;;;;15.07;100.00;96137.56;1018845;29;20406;-70
2022/07/31 02:18:16;;;;;;;6.82;5.38;;;;;;;15.08;100.00;96133.84;1022701;28;20042;-70
2022/07/31 02:18:47;;;;;;;7.05;5.93;;;;;;;15.08;100.00;96139.91;1010999;29;20025;-70
2022/07/31 02:19:18;;;;;;;7.10;6.07;;;;;;;15.05;100.00;96129.09;1014416;29;20040;-70
2022/07/31 02:19:48;;;;;;;5.63;5.13;;;;;;;15.04;100.00;96124.91;1018478;29;20508;-70
2022/07/31 02:20:19;;;;;;;6.15;5.55;;;;;;;15.07;100.00;96134.91;1024856;28;20492;-70
2022/07/31 02:20:50;;;;;;;6.40;5.72;;;;;;;15.07;100.00;96137.56;1014511;29;20040;-71
2022/07/31 02:21:20;;;;;;;7.22;5.32;;;;;;;15.06;100.00;96136.00;1017787;29;20042;-72
2022/07/31 02:21:51;;;;;;;6.15;4.63;;;;;;;15.06;100.00;96130.72;1022529;28;20512;-70
2022/07/31 02:22:21;;;;;;;5.68;4.90;;;;;;;15.11;100.00;96137.78;1022463;29;20027;-69
2022/07/31 02:22:52;;;;;;;5.68;4.82;;;;;;;15.10;100.00;96131.72;1014708;29;20056;-71
2022/07/31 02:23:23;;;;;;;5.32;4.82;;;;;;;15.11;100.00;96133.28;1010975;29;20089;-70
2022/07/31 02:23:53;;;;;;;8.40;4.95;;;;;;;15.12;100.00;96129.56;1021866;28;20027;-71
2022/07/31 02:24:24;;;;;;;5.97;5.05;;;;;;;15.12;100.00;96134.84;1026585;28;20027;-71
2022/07/31 02:24:54;;;;;;;4.88;4.45;;;;;;;15.12;100.00;96131.41;1026521;28;20038;-69
2022/07/31 02:25:25;;;;;;;6.05;4.68;;;;;;;15.16;100.00;96130.59;1025786;28;20023;-73
2022/07/31 02:25:55;;;;;;;6.25;5.05;;;;;;;15.09;100.00;96120.34;1021720;29;20580;-71
2022/07/31 02:26:26;;;;;;;4.95;4.30;;;;;;;15.18;100.00;96122.38;1022608;28;20018;-73
2022/07/31 02:26:56;;;;;;;5.13;4.63;;;;;;;15.19;100.00;96122.09;1022375;28;20163;-72
2022/07/31 02:27:26;;;;;;;4.82;4.43;;;;;;;15.19;100.00;96126.56;1014709;29;20152;-70
2022/07/31 02:27:57;;;;;;;6.78;5.25;;;;;;;15.18;100.00;96119.72;1018672;29;20023;-71
2022/07/31 02:28:27;;;;;;;5.38;4.63;;;;;;;15.22;100.00;96129.44;1022517;29;20027;-72
2022/07/31 02:28:58;;;;;;;5.07;4.50;;;;;;;15.19;100.00;96122.09;1026718;28;20117;-71
2022/07/31 02:29:30;;;;;;;7.95;4.60;;;;;;;15.23;100.00;96136.31;1019231;28;20490;-71